sensor_id;sensor_type;location;lat;lon;timestamp;P1;durP1;ratioP1;P2;durP2;ratioP2
18592;SDS011;9426;54.118;17.948;2023-04-19T00:02:01;12.30;;;4.20;;
18592;SDS011;9426;54.118;17.948;2023-04-19T00:07:44;12.90;;;4.20;;
18592;SDS011;9426;54.118;17.948;2023-04-19T00:13:10;11.37;;;4.37;;
18592;SDS011;9426;54.118;17.948;2023-04-19T00:18:33;11.83;;;4.30;;
18592;SDS011;9426;54.118;17.948;2023-04-19T00:24:00;18.20;;;4.23;;
18592;SDS011;9426;54.118;17.948;2023-04-19T00:29:25;11.50;;;4.00;;
18592;SDS011;9426;54.118;17.948;2023-04-19T00:34:49;11.33;;;4.63;;
18592;SDS011;9426;54.118;17.948;2023-04-19T00:40:14;14.27;;;4.23;;
18592;SDS011;9426;54.118;17.948;2023-04-19T00:45:40;12.03;;;4.50;;
18592;SDS011;9426;54.118;17.948;2023-04-19T00:51:03;11.27;;;4.13;;
18592;SDS011;9426;54.118;17.948;2023-04-19T00:56:27;11.17;;;3.77;;
18592;SDS011;9426;54.118;17.948;2023-04-19T01:01:53;15.83;;;4.03;;
18592;SDS011;9426;54.118;17.948;2023-04-19T01:07:16;14.40;;;4.03;;
18592;SDS011;9426;54.118;17.948;2023-04-19T01:12:40;12.80;;;4.10;;
18592;SDS011;9426;54.118;17.948;2023-04-19T01:18:06;15.23;;;3.93;;
18592;SDS011;9426;54.118;17.948;2023-04-19T01:23:33;11.47;;;4.00;;
18592;SDS011;9426;54.118;17.948;2023-04-19T01:28:56;8.83;;;4.03;;
18592;SDS011;9426;54.118;17.948;2023-04-19T01:34:20;12.77;;;4.53;;
18592;SDS011;9426;54.118;17.948;2023-04-19T01:39:45;13.67;;;4.07;;
18592;SDS011;9426;54.118;17.948;2023-04-19T01:45:09;10.67;;;4.33;;
18592;SDS011;9426;54.118;17.948;2023-04-19T01:50:32;11.40;;;3.90;;
18592;SDS011;9426;54.118;17.948;2023-04-19T01:55:59;10.53;;;3.60;;
18592;SDS011;9426;54.118;17.948;2023-04-19T02:01:22;14.07;;;4.20;;
18592;SDS011;9426;54.118;17.948;2023-04-19T02:06:46;9.83;;;3.73;;
18592;SDS011;9426;54.118;17.948;2023-04-19T02:12:11;15.57;;;4.30;;
18592;SDS011;9426;54.118;17.948;2023-04-19T02:17:37;17.47;;;5.13;;
18592;SDS011;9426;54.118;17.948;2023-04-19T02:23:01;13.33;;;4.43;;
18592;SDS011;9426;54.118;17.948;2023-04-19T02:28:26;15.63;;;4.83;;
18592;SDS011;9426;54.118;17.948;2023-04-19T02:33:49;13.23;;;4.63;;
18592;SDS011;9426;54.118;17.948;2023-04-19T02:39:13;13.80;;;4.63;;
18592;SDS011;9426;54.118;17.948;2023-04-19T02:44:38;12.17;;;4.40;;
18592;SDS011;9426;54.118;17.948;2023-04-19T02:50:02;16.03;;;4.63;;
18592;SDS011;9426;54.118;17.948;2023-04-19T02:55:30;14.13;;;5.23;;
18592;SDS011;9426;54.118;17.948;2023-04-19T03:01:01;20.93;;;5.03;;
18592;SDS011;9426;54.118;17.948;2023-04-19T03:06:24;14.43;;;4.80;;
18592;SDS011;9426;54.118;17.948;2023-04-19T03:11:50;14.60;;;4.80;;
18592;SDS011;9426;54.118;17.948;2023-04-19T03:17:15;21.50;;;5.50;;
18592;SDS011;9426;54.118;17.948;2023-04-19T03:22:38;19.60;;;5.17;;
18592;SDS011;9426;54.118;17.948;2023-04-19T03:28:03;19.07;;;4.90;;
18592;SDS011;9426;54.118;17.948;2023-04-19T03:34:03;12.97;;;4.70;;
18592;SDS011;9426;54.118;17.948;2023-04-19T03:39:32;12.63;;;4.67;;
18592;SDS011;9426;54.118;17.948;2023-04-19T03:44:59;14.77;;;5.73;;
18592;SDS011;9426;54.118;17.948;2023-04-19T03:50:27;14.30;;;4.83;;
18592;SDS011;9426;54.118;17.948;2023-04-19T03:55:51;11.73;;;5.03;;
18592;SDS011;9426;54.118;17.948;2023-04-19T04:01:18;22.30;;;5.10;;
18592;SDS011;9426;54.118;17.948;2023-04-19T04:06:44;21.23;;;5.67;;
18592;SDS011;9426;54.118;17.948;2023-04-19T04:12:10;16.30;;;5.23;;
18592;SDS011;9426;54.118;17.948;2023-04-19T04:17:34;13.27;;;5.47;;
18592;SDS011;9426;54.118;17.948;2023-04-19T04:23:00;15.53;;;5.30;;
18592;SDS011;9426;54.118;17.948;2023-04-19T04:28:24;17.57;;;4.83;;
18592;SDS011;9426;54.118;17.948;2023-04-19T04:33:47;18.57;;;5.03;;
18592;SDS011;9426;54.118;17.948;2023-04-19T04:39:14;17.20;;;6.00;;
18592;SDS011;9426;54.118;17.948;2023-04-19T04:44:38;13.50;;;5.27;;
18592;SDS011;9426;54.118;17.948;2023-04-19T04:50:04;14.10;;;5.50;;
18592;SDS011;9426;54.118;17.948;2023-04-19T04:55:31;14.37;;;4.77;;
18592;SDS011;9426;54.118;17.948;2023-04-19T05:00:54;14.27;;;5.37;;
18592;SDS011;9426;54.118;17.948;2023-04-19T05:06:19;8.93;;;4.30;;
18592;SDS011;9426;54.118;17.948;2023-04-19T05:11:44;11.80;;;5.00;;
18592;SDS011;9426;54.118;17.948;2023-04-19T05:17:08;13.47;;;5.00;;
18592;SDS011;9426;54.118;17.948;2023-04-19T05:22:31;16.43;;;5.17;;
18592;SDS011;9426;54.118;17.948;2023-04-19T05:27:58;16.70;;;4.70;;
18592;SDS011;9426;54.118;17.948;2023-04-19T05:33:32;21.33;;;5.13;;
18592;SDS011;9426;54.118;17.948;2023-04-19T05:38:57;12.03;;;4.70;;
18592;SDS011;9426;54.118;17.948;2023-04-19T05:44:23;15.97;;;4.63;;
18592;SDS011;9426;54.118;17.948;2023-04-19T05:49:46;14.87;;;4.70;;
18592;SDS011;9426;54.118;17.948;2023-04-19T05:55:15;12.33;;;5.00;;
18592;SDS011;9426;54.118;17.948;2023-04-19T06:00:40;13.13;;;4.43;;
18592;SDS011;9426;54.118;17.948;2023-04-19T06:06:07;15.53;;;5.27;;
18592;SDS011;9426;54.118;17.948;2023-04-19T06:11:31;12.17;;;4.33;;
18592;SDS011;9426;54.118;17.948;2023-04-19T06:17:00;11.93;;;4.10;;
18592;SDS011;9426;54.118;17.948;2023-04-19T06:22:24;16.63;;;4.50;;
18592;SDS011;9426;54.118;17.948;2023-04-19T06:27:48;8.77;;;4.07;;
18592;SDS011;9426;54.118;17.948;2023-04-19T06:33:12;9.77;;;4.57;;
18592;SDS011;9426;54.118;17.948;2023-04-19T06:38:36;8.03;;;3.50;;
18592;SDS011;9426;54.118;17.948;2023-04-19T06:44:00;11.00;;;4.00;;
18592;SDS011;9426;54.118;17.948;2023-04-19T06:49:25;6.80;;;3.80;;
18592;SDS011;9426;54.118;17.948;2023-04-19T06:54:48;10.87;;;3.60;;
18592;SDS011;9426;54.118;17.948;2023-04-19T07:00:12;8.27;;;4.00;;
18592;SDS011;9426;54.118;17.948;2023-04-19T07:05:37;12.10;;;3.77;;
18592;SDS011;9426;54.118;17.948;2023-04-19T07:11:01;12.63;;;3.83;;
18592;SDS011;9426;54.118;17.948;2023-04-19T07:16:26;8.60;;;3.77;;
18592;SDS011;9426;54.118;17.948;2023-04-19T07:21:51;10.50;;;3.57;;
18592;SDS011;9426;54.118;17.948;2023-04-19T07:27:15;9.33;;;3.60;;
18592;SDS011;9426;54.118;17.948;2023-04-19T07:32:39;10.10;;;3.70;;
18592;SDS011;9426;54.118;17.948;2023-04-19T07:38:04;8.33;;;3.60;;
18592;SDS011;9426;54.118;17.948;2023-04-19T07:43:28;14.37;;;3.93;;
18592;SDS011;9426;54.118;17.948;2023-04-19T07:48:52;10.90;;;4.03;;
18592;SDS011;9426;54.118;17.948;2023-04-19T07:54:17;14.17;;;4.80;;
18592;SDS011;9426;54.118;17.948;2023-04-19T07:59:41;10.03;;;4.07;;
18592;SDS011;9426;54.118;17.948;2023-04-19T08:05:05;10.97;;;3.73;;
18592;SDS011;9426;54.118;17.948;2023-04-19T08:10:31;17.73;;;4.40;;
18592;SDS011;9426;54.118;17.948;2023-04-19T08:15:56;11.80;;;3.83;;
18592;SDS011;9426;54.118;17.948;2023-04-19T08:21:24;13.10;;;4.13;;
18592;SDS011;9426;54.118;17.948;2023-04-19T08:26:52;10.17;;;3.50;;
18592;SDS011;9426;54.118;17.948;2023-04-19T08:32:16;10.37;;;3.40;;
18592;SDS011;9426;54.118;17.948;2023-04-19T08:37:40;9.87;;;3.70;;
18592;SDS011;9426;54.118;17.948;2023-04-19T08:43:05;10.57;;;3.60;;
18592;SDS011;9426;54.118;17.948;2023-04-19T08:48:29;9.93;;;3.93;;
18592;SDS011;9426;54.118;17.948;2023-04-19T08:53:56;7.83;;;3.57;;
18592;SDS011;9426;54.118;17.948;2023-04-19T08:59:22;8.27;;;3.67;;
18592;SDS011;9426;54.118;17.948;2023-04-19T09:04:45;10.27;;;4.47;;
18592;SDS011;9426;54.118;17.948;2023-04-19T09:10:09;8.87;;;4.47;;
18592;SDS011;9426;54.118;17.948;2023-04-19T09:15:37;15.27;;;4.93;;
18592;SDS011;9426;54.118;17.948;2023-04-19T09:21:02;15.10;;;4.97;;
18592;SDS011;9426;54.118;17.948;2023-04-19T09:26:26;8.57;;;4.17;;
18592;SDS011;9426;54.118;17.948;2023-04-19T09:31:59;12.87;;;5.40;;
18592;SDS011;9426;54.118;17.948;2023-04-19T09:37:23;16.90;;;5.67;;
18592;SDS011;9426;54.118;17.948;2023-04-19T09:42:59;17.07;;;5.40;;
18592;SDS011;9426;54.118;17.948;2023-04-19T09:48:32;10.47;;;5.40;;
18592;SDS011;9426;54.118;17.948;2023-04-19T09:53:57;14.63;;;5.50;;
18592;SDS011;9426;54.118;17.948;2023-04-19T09:59:21;10.90;;;5.27;;
18592;SDS011;9426;54.118;17.948;2023-04-19T10:04:47;15.17;;;6.07;;
18592;SDS011;9426;54.118;17.948;2023-04-19T10:10:17;16.23;;;6.10;;
18592;SDS011;9426;54.118;17.948;2023-04-19T10:15:46;16.43;;;5.77;;
18592;SDS011;9426;54.118;17.948;2023-04-19T10:21:14;18.13;;;5.10;;
18592;SDS011;9426;54.118;17.948;2023-04-19T10:32:36;14.73;;;7.07;;
18592;SDS011;9426;54.118;17.948;2023-04-19T10:38:03;13.87;;;6.00;;
18592;SDS011;9426;54.118;17.948;2023-04-19T10:43:28;17.57;;;6.90;;
18592;SDS011;9426;54.118;17.948;2023-04-19T10:48:55;13.37;;;6.03;;
18592;SDS011;9426;54.118;17.948;2023-04-19T10:54:31;13.07;;;5.97;;
18592;SDS011;9426;54.118;17.948;2023-04-19T11:11:42;12.93;;;4.60;;
18592;SDS011;9426;54.118;17.948;2023-04-19T11:17:12;9.87;;;4.70;;
18592;SDS011;9426;54.118;17.948;2023-04-19T11:22:38;8.27;;;4.87;;
18592;SDS011;9426;54.118;17.948;2023-04-19T11:28:04;8.60;;;4.80;;
18592;SDS011;9426;54.118;17.948;2023-04-19T11:33:31;11.90;;;5.53;;
18592;SDS011;9426;54.118;17.948;2023-04-19T11:38:55;11.03;;;5.90;;
18592;SDS011;9426;54.118;17.948;2023-04-19T11:44:21;10.23;;;6.40;;
18592;SDS011;9426;54.118;17.948;2023-04-19T11:49:45;11.73;;;6.20;;
18592;SDS011;9426;54.118;17.948;2023-04-19T11:55:18;13.40;;;7.63;;
18592;SDS011;9426;54.118;17.948;2023-04-19T12:00:46;17.83;;;8.57;;
18592;SDS011;9426;54.118;17.948;2023-04-19T12:06:11;22.00;;;10.87;;
18592;SDS011;9426;54.118;17.948;2023-04-19T12:11:42;25.17;;;10.70;;
18592;SDS011;9426;54.118;17.948;2023-04-19T12:17:08;15.77;;;8.50;;
18592;SDS011;9426;54.118;17.948;2023-04-19T12:22:33;16.67;;;8.57;;
18592;SDS011;9426;54.118;17.948;2023-04-19T12:27:57;20.10;;;7.77;;
18592;SDS011;9426;54.118;17.948;2023-04-19T12:33:23;20.20;;;9.33;;
18592;SDS011;9426;54.118;17.948;2023-04-19T12:38:46;19.37;;;8.23;;
18592;SDS011;9426;54.118;17.948;2023-04-19T12:44:10;25.07;;;8.17;;
18592;SDS011;9426;54.118;17.948;2023-04-19T12:49:34;21.47;;;8.47;;
18592;SDS011;9426;54.118;17.948;2023-04-19T12:54:58;16.43;;;7.93;;
18592;SDS011;9426;54.118;17.948;2023-04-19T13:00:23;25.13;;;8.63;;
18592;SDS011;9426;54.118;17.948;2023-04-19T13:05:55;20.90;;;8.53;;
18592;SDS011;9426;54.118;17.948;2023-04-19T13:11:19;18.70;;;7.67;;
18592;SDS011;9426;54.118;17.948;2023-04-19T13:16:46;19.70;;;8.67;;
18592;SDS011;9426;54.118;17.948;2023-04-19T13:22:14;24.80;;;11.20;;
18592;SDS011;9426;54.118;17.948;2023-04-19T13:27:40;21.47;;;8.03;;
18592;SDS011;9426;54.118;17.948;2023-04-19T13:33:08;19.40;;;7.93;;
18592;SDS011;9426;54.118;17.948;2023-04-19T13:38:35;24.73;;;8.23;;
18592;SDS011;9426;54.118;17.948;2023-04-19T13:44:03;24.77;;;9.07;;
18592;SDS011;9426;54.118;17.948;2023-04-19T13:49:30;23.40;;;8.50;;
18592;SDS011;9426;54.118;17.948;2023-04-19T13:55:04;22.07;;;8.60;;
18592;SDS011;9426;54.118;17.948;2023-04-19T14:00:40;23.17;;;6.50;;
18592;SDS011;9426;54.118;17.948;2023-04-19T14:06:07;17.30;;;6.63;;
18592;SDS011;9426;54.118;17.948;2023-04-19T14:11:36;19.33;;;7.00;;
18592;SDS011;9426;54.118;17.948;2023-04-19T14:17:02;25.10;;;10.20;;
18592;SDS011;9426;54.118;17.948;2023-04-19T14:22:32;28.37;;;10.33;;
18592;SDS011;9426;54.118;17.948;2023-04-19T14:28:02;20.33;;;7.87;;
18592;SDS011;9426;54.118;17.948;2023-04-19T14:33:28;22.77;;;9.50;;
18592;SDS011;9426;54.118;17.948;2023-04-19T14:38:52;24.63;;;10.30;;
18592;SDS011;9426;54.118;17.948;2023-04-19T14:44:20;25.30;;;10.63;;
18592;SDS011;9426;54.118;17.948;2023-04-19T14:49:46;25.97;;;10.97;;
18592;SDS011;9426;54.118;17.948;2023-04-19T14:55:13;27.17;;;11.20;;
18592;SDS011;9426;54.118;17.948;2023-04-19T15:00:41;36.57;;;13.57;;
18592;SDS011;9426;54.118;17.948;2023-04-19T15:06:07;27.47;;;12.60;;
18592;SDS011;9426;54.118;17.948;2023-04-19T15:11:32;34.57;;;12.33;;
18592;SDS011;9426;54.118;17.948;2023-04-19T15:16:58;43.90;;;18.27;;
18592;SDS011;9426;54.118;17.948;2023-04-19T15:22:23;66.33;;;29.93;;
18592;SDS011;9426;54.118;17.948;2023-04-19T15:27:48;53.30;;;25.43;;
18592;SDS011;9426;54.118;17.948;2023-04-19T15:33:15;30.60;;;12.97;;
18592;SDS011;9426;54.118;17.948;2023-04-19T15:38:42;31.13;;;12.80;;
18592;SDS011;9426;54.118;17.948;2023-04-19T15:44:08;33.10;;;14.03;;
18592;SDS011;9426;54.118;17.948;2023-04-19T15:49:35;30.17;;;12.80;;
18592;SDS011;9426;54.118;17.948;2023-04-19T15:55:05;32.50;;;14.87;;
18592;SDS011;9426;54.118;17.948;2023-04-19T16:00:59;30.70;;;16.03;;
18592;SDS011;9426;54.118;17.948;2023-04-19T16:06:51;25.00;;;10.23;;
18592;SDS011;9426;54.118;17.948;2023-04-19T16:12:26;20.93;;;8.93;;
18592;SDS011;9426;54.118;17.948;2023-04-19T16:18:17;19.00;;;7.73;;
18592;SDS011;9426;54.118;17.948;2023-04-19T16:24:08;21.93;;;9.07;;
18592;SDS011;9426;54.118;17.948;2023-04-19T16:29:31;20.13;;;8.13;;
18592;SDS011;9426;54.118;17.948;2023-04-19T16:34:58;21.40;;;8.90;;
18592;SDS011;9426;54.118;17.948;2023-04-19T16:40:34;22.17;;;10.80;;
18592;SDS011;9426;54.118;17.948;2023-04-19T16:46:05;20.70;;;9.70;;
18592;SDS011;9426;54.118;17.948;2023-04-19T16:51:29;20.93;;;10.10;;
18592;SDS011;9426;54.118;17.948;2023-04-19T16:56:55;24.97;;;9.80;;
18592;SDS011;9426;54.118;17.948;2023-04-19T17:02:31;21.80;;;7.97;;
18592;SDS011;9426;54.118;17.948;2023-04-19T17:08:01;20.60;;;7.90;;
18592;SDS011;9426;54.118;17.948;2023-04-19T17:13:35;16.23;;;7.87;;
18592;SDS011;9426;54.118;17.948;2023-04-19T17:19:05;18.10;;;7.77;;
18592;SDS011;9426;54.118;17.948;2023-04-19T17:24:42;17.87;;;7.33;;
18592;SDS011;9426;54.118;17.948;2023-04-19T17:30:08;18.97;;;7.67;;
18592;SDS011;9426;54.118;17.948;2023-04-19T17:35:34;15.10;;;7.23;;
18592;SDS011;9426;54.118;17.948;2023-04-19T17:41:00;22.60;;;8.00;;
